Time;durP1;ratioP1;P1;durP2;ratioP2;P2;SDS_P1;SDS_P2;PMS_P1;PMS_P2;Temp;Humidity;BMP_temperature;BMP_pressure;BME280_temperature;BME280_humidity;BME280_pressure;Samples;Min_cycle;Max_cycle;Signal;HPM_P1;HPM_P2
2023/06/13 00:00:21;;;;;;;4.70;3.25;;;;;27.70;101365.00;;;;5088058;28;20206;-80
2023/06/13 00:02:48;;;;;;;4.28;3.03;;;;;27.60;101367.00;;;;5088395;28;20202;-79
2023/06/13 00:05:18;;;;;;;4.45;3.40;;;;;27.60;101366.00;;;;5084398;28;20222;-80
2023/06/13 00:07:45;;;;;;;4.07;3.22;;;;;27.50;101363.00;;;;5068704;28;20194;-80
2023/06/13 00:10:13;;;;;;;3.42;3.10;;;;;27.50;101359.00;;;;5068079;28;20601;-80
2023/06/13 00:12:41;;;;;;;3.72;3.13;;;;;27.40;101362.00;;;;5067455;28;20198;-80
2023/06/13 00:15:11;;;;;;;4.38;3.78;;;;;27.40;101356.00;;;;5067607;28;20211;-80
2023/06/13 00:17:39;;;;;;;6.00;3.40;;;;;27.40;101358.00;;;;5068563;28;20322;-79
2023/06/13 00:20:08;;;;;;;4.18;3.25;;;;;27.30;101349.00;;;;5068164;28;20278;-80
2023/06/13 00:22:35;;;;;;;4.50;3.60;;;;;27.30;101351.00;;;;5071119;28;20214;-80
2023/06/13 00:25:03;;;;;;;4.85;3.15;;;;;27.30;101348.00;;;;5072470;28;20205;-80
2023/06/13 00:27:31;;;;;;;6.03;3.50;;;;;27.20;101351.00;;;;5082589;28;20202;-80
2023/06/13 00:29:59;;;;;;;5.18;3.33;;;;;27.20;101355.00;;;;5091724;28;20736;-80
2023/06/13 00:32:27;;;;;;;7.35;3.13;;;;;27.20;101351.00;;;;5091024;28;20230;-80
2023/06/13 00:34:55;;;;;;;3.53;3.22;;;;;27.20;101356.00;;;;5091200;28;20601;-79
2023/06/13 00:37:22;;;;;;;5.45;2.92;;;;;27.10;101351.00;;;;5091540;28;20202;-80
2023/06/13 00:39:50;;;;;;;5.20;3.33;;;;;27.10;101351.00;;;;5082883;28;20215;-80
2023/06/13 00:42:18;;;;;;;4.53;3.60;;;;;27.10;101351.00;;;;5070942;28;20198;-80
2023/06/13 00:44:45;;;;;;;3.63;3.00;;;;;27.00;101355.00;;;;5071095;28;20656;-80
2023/06/13 00:47:13;;;;;;;3.70;3.33;;;;;27.00;101347.00;;;;5070947;28;20213;-79
2023/06/13 00:49:42;;;;;;;5.30;3.38;;;;;27.00;101349.00;;;;5070766;28;20260;-80
2023/06/13 00:52:10;;;;;;;3.95;3.28;;;;;26.90;101340.00;;;;5070389;28;20759;-80
2023/06/13 00:54:38;;;;;;;3.50;2.83;;;;;26.90;101344.00;;;;5070957;28;20256;-80
2023/06/13 00:57:06;;;;;;;3.45;2.97;;;;;26.90;101339.00;;;;5082434;28;20215;-80
2023/06/13 00:59:34;;;;;;;6.53;3.35;;;;;26.90;101340.00;;;;5090592;28;20565;-80
2023/06/13 01:02:02;;;;;;;5.63;3.33;;;;;26.80;101334.00;;;;5091157;28;20201;-80
2023/06/13 01:04:34;;;;;;;3.53;3.15;;;;;26.80;101342.00;;;;5091249;28;20225;-80
2023/06/13 01:07:03;;;;;;;3.03;2.65;;;;;26.80;101339.00;;;;5091489;28;20278;-80
2023/06/13 01:09:30;;;;;;;4.43;3.33;;;;;26.70;101349.00;;;;5089973;28;20206;-79
2023/06/13 01:12:06;;;;;;;3.30;2.97;;;;;26.70;101345.00;;;;5091170;28;20229;-80
2023/06/13 01:14:40;;;;;;;4.32;3.33;;;;;26.70;101347.00;;;;5075857;28;20255;-80
2023/06/13 01:17:15;;;;;;;3.95;3.30;;;;;26.60;101339.00;;;;5070749;28;20191;-80
2023/06/13 01:19:48;;;;;;;4.53;3.03;;;;;26.60;101342.00;;;;5069361;28;20194;-80
2023/06/13 01:22:20;;;;;;;4.22;3.53;;;;;26.60;101341.00;;;;5070874;28;20199;-79
2023/06/13 01:25:02;;;;;;;3.35;2.95;;;;;26.50;101337.00;;;;5071487;28;20203;-80
2023/06/13 01:27:31;;;;;;;3.58;2.67;;;;;26.50;101339.00;;;;5083457;28;20655;-79
2023/06/13 01:30:02;;;;;;;3.50;3.20;;;;;26.50;101342.00;;;;5090462;28;20205;-79
2023/06/13 01:32:32;;;;;;;3.97;3.53;;;;;26.50;101339.00;;;;5090732;28;20237;-79
2023/06/13 01:35:00;;;;;;;3.67;3.10;;;;;26.50;101341.00;;;;5090613;28;20252;-79
2023/06/13 01:37:28;;;;;;;4.13;3.40;;;;;26.50;101339.00;;;;5090935;28;20201;-79
2023/06/13 01:39:55;;;;;;;5.05;2.90;;;;;26.40;101340.00;;;;5091013;28;20198;-80
2023/06/13 01:42:23;;;;;;;3.50;3.00;;;;;26.40;101338.00;;;;5090423;28;20190;-79
2023/06/13 01:44:51;;;;;;;4.15;3.00;;;;;26.40;101338.00;;;;5091332;28;20202;-80
2023/06/13 01:47:27;;;;;;;3.58;3.05;;;;;26.30;101343.00;;;;5085043;28;20203;-79
2023/06/13 01:50:04;;;;;;;4.75;2.90;;;;;26.30;101339.00;;;;5071378;28;20213;-80
2023/06/13 01:52:40;;;;;;;5.78;3.30;;;;;26.30;101337.00;;;;5069647;28;20195;-80
2023/06/13 01:55:14;;;;;;;4.75;2.83;;;;;26.30;101335.00;;;;5070926;28;20244;-80
2023/06/13 01:57:48;;;;;;;4.28;3.03;;;;;26.20;101335.00;;;;5074679;28;20206;-79
2023/06/13 02:00:18;;;;;;;5.35;3.00;;;;;26.20;101336.00;;;;5089767;28;20231;-79
2023/06/13 02:02:46;;;;;;;4.57;3.22;;;;;26.20;101338.00;;;;5090732;28;20323;-80
2023/06/13 02:05:13;;;;;;;3.83;3.10;;;;;26.20;101342.00;;;;5078352;28;20219;-79
2023/06/13 02:07:42;;;;;;;4.00;3.60;;;;;26.10;101333.00;;;;5070056;28;20202;-80
2023/06/13 02:10:09;;;;;;;4.28;3.15;;;;;26.10;101336.00;;;;5069323;28;20199;-79
2023/06/13 02:12:37;;;;;;;5.38;3.08;;;;;26.00;101341.00;;;;5069679;28;20210;-80
2023/06/13 02:15:08;;;;;;;3.70;3.20;;;;;26.00;101333.00;;;;5069669;28;20211;-79
2023/06/13 02:17:36;;;;;;;5.05;2.97;;;;;25.90;101330.00;;;;5069513;28;20191;-80
2023/06/13 02:20:06;;;;;;;4.65;3.30;;;;;25.90;101329.00;;;;5069128;28;20199;-80
2023/06/13 02:22:34;;;;;;;4.60;3.25;;;;;25.90;101334.00;;;;5084108;28;20206;-80
2023/06/13 02:25:03;;;;;;;4.40;3.45;;;;;25.80;101335.00;;;;5089666;28;20198;-80
2023/06/13 02:27:31;;;;;;;4.43;3.25;;;;;25.80;101331.00;;;;5089137;28;20195;-80
2023/06/13 02:29:58;;;;;;;4.40;3.40;;;;;25.80;101323.00;;;;5089573;28;20198;-79
2023/06/13 02:32:29;;;;;;;3.70;3.00;;;;;25.70;101333.00;;;;5088921;28;20236;-79
2023/06/13 02:34:57;;;;;;;3.90;3.30;;;;;25.70;101335.00;;;;5089531;28;20190;-80
2023/06/13 02:37:25;;;;;;;3.67;3.33;;;;;25.60;101335.00;;;;5088844;28;20282;-80
2023/06/13 02:39:52;;;;;;;7.63;3.15;;;;;25.60;101339.00;;;;5088718;28;20236;-79
2023/06/13 02:42:20;;;;;;;3.22;2.90;;;;;25.60;101330.00;;;;5088680;28;20210;-79
2023/06/13 02:44:47;;;;;;;5.70;3.58;;;;;25.50;101331.00;;;;5089150;28;20189;-79
2023/06/13 02:47:15;;;;;;;6.13;3.30;;;;;25.50;101329.00;;;;5089157;28;20205;-80
2023/06/13 02:49:42;;;;;;;5.60;3.25;;;;;25.50;101335.00;;;;5089288;28;20205;-80
2023/06/13 02:52:10;;;;;;;5.82;3.67;;;;;25.40;101330.00;;;;5089184;28;20234;-80
2023/06/13 02:54:38;;;;;;;3.90;3.22;;;;;25.40;101330.00;;;;5089331;28;20217;-79
2023/06/13 02:57:06;;;;;;;4.53;3.60;;;;;25.40;101331.00;;;;5088972;28;20198;-80
2023/06/13 02:59:33;;;;;;;3.63;3.08;;;;;25.30;101339.00;;;;5088778;28;20645;-79
2023/06/13 03:02:01;;;;;;;4.85;3.55;;;;;25.30;101329.00;;;;5089606;28;20206;-80
2023/06/13 03:04:29;;;;;;;4.32;3.22;;;;;25.30;101332.00;;;;5088495;28;20210;-80
2023/06/13 03:06:56;;;;;;;7.72;3.72;;;;;25.20;101328.00;;;;5089499;28;20221;-79
2023/06/13 03:09:25;;;;;;;5.18;3.55;;;;;25.20;101335.00;;;;5088436;28;20212;-79
2023/06/13 03:11:52;;;;;;;4.22;3.47;;;;;25.20;101340.00;;;;5088069;28;20236;-80
2023/06/13 03:14:20;;;;;;;6.20;3.60;;;;;25.20;101336.00;;;;5068186;28;20191;-80
2023/06/13 03:16:48;;;;;;;5.78;3.38;;;;;25.10;101334.00;;;;5067877;28;20289;-80
2023/06/13 03:19:17;;;;;;;6.00;3.45;;;;;25.10;101342.00;;;;5068216;28;20253;-79
2023/06/13 03:21:45;;;;;;;5.22;3.53;;;;;25.10;101340.00;;;;5068442;28;20669;-79
2023/06/13 03:24:13;;;;;;;5.68;3.85;;;;;25.00;101346.00;;;;5067890;28;20203;-79
2023/06/13 03:26:42;;;;;;;4.32;3.38;;;;;25.00;101335.00;;;;5067569;28;20198;-79
2023/06/13 03:29:09;;;;;;;6.10;3.65;;;;;25.00;101334.00;;;;5079573;28;20209;-80
2023/06/13 03:31:36;;;;;;;4.10;3.25;;;;;24.90;101344.00;;;;5067961;28;20238;-79
2023/06/13 03:34:04;;;;;;;3.70;3.35;;;;;24.90;101341.00;;;;5067466;28;20198;-80
2023/06/13 03:36:33;;;;;;;6.35;4.03;;;;;24.90;101340.00;;;;5068230;28;20210;-79
2023/06/13 03:39:00;;;;;;;5.13;4.25;;;;;24.80;101335.00;;;;5067900;28;20195;-80
2023/06/13 03:41:28;;;;;;;3.97;3.58;;;;;24.80;101331.00;;;;5067349;28;20573;-80
2023/06/13 03:43:56;;;;;;;7.03;3.97;;;;;24.70;101340.00;;;;5067798;28;20570;-80
2023/06/13 03:46:23;;;;;;;6.32;3.90;;;;;24.70;101333.00;;;;5068252;28;20207;-80
2023/06/13 03:48:51;;;;;;;5.03;3.92;;;;;24.70;101341.00;;;;5067964;28;20207;-80
2023/06/13 03:51:18;;;;;;;6.05;4.78;;;;;24.70;101341.00;;;;5068369;28;20234;-81
2023/06/13 03:53:45;;;;;;;4.47;4.03;;;;;24.70;101336.00;;;;5068045;28;20198;-80
2023/06/13 03:56:13;;;;;;;6.13;4.78;;;;;24.60;101337.00;;;;5068183;28;20234;-81
2023/06/13 03:58:40;;;;;;;8.52;4.30;;;;;24.60;101334.00;;;;5079769;28;20615;-80
2023/06/13 04:01:10;;;;;;;6.13;4.32;;;;;24.60;101336.00;;;;5088407;28;20210;-80
2023/06/13 04:03:39;;;;;;;5.43;4.13;;;;;24.50;101338.00;;;;5080982;28;20252;-80
2023/06/13 04:06:07;;;;;;;4.88;4.00;;;;;24.50;101336.00;;;;5068312;28;20578;-80
2023/06/13 04:08:35;;;;;;;3.70;3.30;;;;;24.50;101343.00;;;;5068409;28;20575;-80
2023/06/13 04:11:03;;;;;;;5.97;4.28;;;;;24.50;101337.00;;;;5068377;28;20227;-80
2023/06/13 04:13:30;;;;;;;5.57;4.65;;;;;24.50;101334.00;;;;5066794;28;20202;-80
2023/06/13 04:15:57;;;;;;;4.40;3.97;;;;;24.50;101342.00;;;;5068780;28;20197;-80
2023/06/13 04:18:26;;;;;;;7.50;3.72;;;;;24.40;101341.00;;;;5067739;28;20206;-80
2023/06/13 04:20:55;;;;;;;4.75;4.00;;;;;24.50;101344.00;;;;5068903;28;20217;-81
2023/06/13 04:23:25;;;;;;;6.93;4.25;;;;;24.40;101341.00;;;;5067284;28;20213;-80
2023/06/13 04:25:54;;;;;;;6.05;3.58;;;;;24.40;101348.00;;;;5067708;28;20207;-79
2023/06/13 04:28:22;;;;;;;7.32;4.55;;;;;24.40;101342.00;;;;5074448;28;20209;-80
2023/06/13 04:30:51;;;;;;;5.22;4.13;;;;;24.40;101345.00;;;;5088766;28;20265;-80
2023/06/13 04:33:19;;;;;;;5.60;3.90;;;;;24.40;101348.00;;;;5088025;28;20632;-80
2023/06/13 04:35:49;;;;;;;5.60;3.67;;;;;24.40;101341.00;;;;5088662;28;20202;-80
2023/06/13 04:38:20;;;;;;;4.68;4.13;;;;;24.40;101345.00;;;;5086943;28;20307;-80
2023/06/13 04:40:47;;;;;;;4.57;3.97;;;;;24.40;101346.00;;;;5088446;28;20209;-80
2023/06/13 04:43:15;;;;;;;4.78;4.20;;;;;24.40;101345.00;;;;5088587;28;20214;-80
2023/06/13 04:45:43;;;;;;;4.13;3.72;;;;;24.50;101340.00;;;;5081802;28;20252;-80
2023/06/13 04:48:11;;;;;;;4.38;3.70;;;;;24.50;101343.00;;;;5088291;28;20260;-80
2023/06/13 04:50:40;;;;;;;5.72;4.10;;;;;24.50;101341.00;;;;5087569;28;20248;-80
2023/06/13 04:53:11;;;;;;;5.65;4.07;;;;;24.50;101341.00;;;;5088058;28;20700;-80
2023/06/13 04:55:38;;;;;;;5.40;3.65;;;;;24.60;101340.00;;;;5087019;28;20987;-80
2023/06/13 04:58:06;;;;;;;4.45;3.78;;;;;24.60;101341.00;;;;5087102;28;20205;-80
2023/06/13 05:00:33;;;;;;;6.25;4.40;;;;;24.60;101337.00;;;;5086599;28;20198;-80
2023/06/13 05:03:01;;;;;;;7.45;4.13;;;;;24.60;101347.00;;;;5087570;28;20213;-80
2023/06/13 05:05:28;;;;;;;9.63;4.47;;;;;24.60;101352.00;;;;5087139;28;20611;-81
2023/06/13 05:07:59;;;;;;;4.43;4.00;;;;;24.70;101346.00;;;;5087669;28;20202;-79
2023/06/13 05:10:28;;;;;;;4.70;3.75;;;;;24.70;101352.00;;;;5090717;28;20213;-79
2023/06/13 05:12:56;;;;;;;4.72;3.58;;;;;24.70;101363.00;;;;5071821;28;20233;-80
2023/06/13 05:15:24;;;;;;;6.53;4.38;;;;;24.80;101368.00;;;;5070478;28;20555;-80
2023/06/13 05:17:54;;;;;;;6.65;4.15;;;;;24.80;101371.00;;;;5070877;28;20641;-80
2023/06/13 05:20:22;;;;;;;7.03;3.95;;;;;24.80;101372.00;;;;5069685;28;20290;-79
2023/06/13 05:22:52;;;;;;;5.43;4.20;;;;;24.90;101372.00;;;;5070437;28;20218;-79
2023/06/13 05:25:20;;;;;;;5.25;4.20;;;;;24.90;101374.00;;;;5070806;28;20191;-80
2023/06/13 05:27:49;;;;;;;6.47;3.88;;;;;25.00;101378.00;;;;5072372;28;20266;-80
2023/06/13 05:30:17;;;;;;;6.38;3.90;;;;;25.00;101373.00;;;;5091016;28;20199;-80
2023/06/13 05:32:44;;;;;;;5.68;4.07;;;;;25.10;101380.00;;;;5091542;28;20706;-79
2023/06/13 05:35:12;;;;;;;10.15;4.25;;;;;25.10;101380.00;;;;5090935;28;20627;-80
2023/06/13 05:37:39;;;;;;;5.88;3.90;;;;;25.20;101379.00;;;;5090380;28;20198;-81
2023/06/13 05:40:08;;;;;;;7.18;4.57;;;;;25.30;101376.00;;;;5090833;28;20198;-81
2023/06/13 05:42:37;;;;;;;6.03;3.58;;;;;25.30;101380.00;;;;5090234;28;20205;-80
2023/06/13 05:45:09;;;;;;;5.95;4.28;;;;;25.40;101378.00;;;;5089553;28;20239;-80
2023/06/13 05:47:37;;;;;;;6.43;4.05;;;;;25.50;101376.00;;;;5090168;28;20403;-80
2023/06/13 05:50:05;;;;;;;4.30;3.90;;;;;25.50;101378.00;;;;5090958;28;20206;-80
2023/06/13 05:52:33;;;;;;;5.25;3.95;;;;;25.60;101379.00;;;;5090182;28;20226;-80
2023/06/13 05:55:04;;;;;;;4.75;4.03;;;;;25.60;101381.00;;;;5090495;28;20202;-80
2023/06/13 05:57:40;;;;;;;5.30;4.00;;;;;25.60;101381.00;;;;5090049;28;20195;-80
2023/06/13 06:00:12;;;;;;;5.97;4.07;;;;;25.70;101374.00;;;;5089765;28;20202;-80
2023/06/13 06:02:40;;;;;;;7.03;4.07;;;;;25.90;101383.00;;;;5082847;28;20237;-80
2023/06/13 06:05:08;;;;;;;5.72;4.05;;;;;25.90;101385.00;;;;5069301;28;20223;-80
2023/06/13 06:07:36;;;;;;;5.95;3.95;;;;;26.00;101379.00;;;;5069474;28;20203;-80
2023/06/13 06:10:03;;;;;;;6.63;3.92;;;;;26.10;101385.00;;;;5070154;28;20198;-80
2023/06/13 06:12:31;;;;;;;5.75;4.05;;;;;26.10;101386.00;;;;5068506;28;20887;-80
2023/06/13 06:14:58;;;;;;;4.20;3.72;;;;;26.20;101384.00;;;;5069295;28;20550;-81
2023/06/13 06:17:26;;;;;;;6.68;4.07;;;;;26.30;101390.00;;;;5069615;28;20210;-81
2023/06/13 06:19:54;;;;;;;5.10;4.18;;;;;26.40;101390.00;;;;5069414;28;20218;-79
2023/06/13 06:22:21;;;;;;;4.47;3.95;;;;;26.40;101386.00;;;;5068395;28;20211;-81
2023/06/13 06:24:49;;;;;;;3.97;3.58;;;;;26.50;101390.00;;;;5068884;28;20585;-80
2023/06/13 06:27:16;;;;;;;6.45;4.03;;;;;26.60;101389.00;;;;5068760;28;20199;-81
2023/06/13 06:29:43;;;;;;;7.25;3.70;;;;;26.70;101394.00;;;;5069518;28;20196;-81
2023/06/13 06:32:11;;;;;;;4.25;3.55;;;;;26.80;101393.00;;;;5088377;28;20218;-80
2023/06/13 06:34:40;;;;;;;3.78;3.38;;;;;26.80;101390.00;;;;5089467;28;20206;-80
2023/06/13 06:37:07;;;;;;;5.43;3.97;;;;;26.90;101399.00;;;;5076390;28;20210;-80
2023/06/13 06:39:35;;;;;;;6.95;4.25;;;;;27.00;101397.00;;;;5068244;28;20668;-80
2023/06/13 06:42:02;;;;;;;5.38;3.72;;;;;27.10;101397.00;;;;5068939;28;20340;-81
2023/06/13 06:44:30;;;;;;;4.13;3.70;;;;;27.20;101396.00;;;;5068241;28;20195;-81
2023/06/13 06:46:57;;;;;;;4.72;3.58;;;;;27.30;101394.00;;;;5068998;28;20201;-80
2023/06/13 06:49:24;;;;;;;6.05;3.97;;;;;27.40;101389.00;;;;5068621;28;20649;-80
2023/06/13 06:51:53;;;;;;;4.53;3.20;;;;;27.40;101388.00;;;;5069822;28;20233;-80
2023/06/13 06:54:20;;;;;;;6.47;3.17;;;;;27.50;101385.00;;;;5069200;28;20207;-82
2023/06/13 06:56:48;;;;;;;4.45;3.33;;;;;27.60;101387.00;;;;5069188;28;20199;-80
2023/06/13 06:59:15;;;;;;;5.38;3.53;;;;;27.70;101384.00;;;;5078613;28;20294;-80
2023/06/13 07:01:43;;;;;;;4.22;3.25;;;;;27.90;101386.00;;;;5088464;28;20194;-81
2023/06/13 07:04:10;;;;;;;3.33;3.03;;;;;28.00;101390.00;;;;5086785;28;20221;-81
2023/06/13 07:06:37;;;;;;;3.92;3.53;;;;;28.10;101383.00;;;;5068198;28;20210;-81
2023/06/13 07:09:06;;;;;;;8.55;3.33;;;;;28.20;101385.00;;;;5068874;28;20203;-81
2023/06/13 07:11:33;;;;;;;4.07;3.30;;;;;28.30;101387.00;;;;5068673;28;20203;-80
2023/06/13 07:14:00;;;;;;;4.25;3.47;;;;;28.40;101383.00;;;;5069379;28;20223;-81
2023/06/13 07:16:28;;;;;;;5.60;3.42;;;;;28.50;101388.00;;;;5068372;28;20199;-81
2023/06/13 07:18:55;;;;;;;5.78;3.42;;;;;28.60;101386.00;;;;5069573;28;20796;-80
2023/06/13 07:21:22;;;;;;;3.60;2.75;;;;;28.70;101382.00;;;;5067939;28;20549;-79
2023/06/13 07:23:50;;;;;;;3.45;2.97;;;;;28.70;101383.00;;;;5068595;28;20199;-83
2023/06/13 07:26:19;;;;;;;4.00;3.40;;;;;28.80;101387.00;;;;5069131;28;20554;-80
2023/06/13 07:28:46;;;;;;;4.95;3.13;;;;;29.00;101392.00;;;;5069541;28;20206;-81
2023/06/13 07:31:13;;;;;;;4.43;3.40;;;;;29.10;101386.00;;;;5081470;28;20230;-79
2023/06/13 07:33:40;;;;;;;3.85;3.38;;;;;29.10;101388.00;;;;5088304;28;20222;-80
2023/06/13 07:36:08;;;;;;;3.85;3.45;;;;;29.20;101385.00;;;;5087932;28;20210;-80
2023/06/13 07:38:35;;;;;;;5.30;2.88;;;;;29.30;101386.00;;;;5088756;28;20289;-80
2023/06/13 07:41:03;;;;;;;3.90;3.33;;;;;29.50;101387.00;;;;5088653;28;20194;-80
2023/06/13 07:43:32;;;;;;;6.25;3.83;;;;;29.50;101385.00;;;;5087500;28;20205;-81
2023/06/13 07:46:00;;;;;;;3.90;2.83;;;;;29.60;101390.00;;;;5086721;28;20210;-80
2023/06/13 07:48:27;;;;;;;5.72;3.15;;;;;29.70;101380.00;;;;5087649;28;20289;-80
2023/06/13 07:50:54;;;;;;;7.47;3.10;;;;;29.80;101389.00;;;;5088288;28;20205;-80
2023/06/13 07:53:22;;;;;;;3.35;2.88;;;;;30.00;101385.00;;;;5088316;28;20237;-80
2023/06/13 07:55:52;;;;;;;4.00;3.00;;;;;30.10;101383.00;;;;5087824;28;20198;-79
2023/06/13 07:58:19;;;;;;;3.90;2.85;;;;;30.20;101383.00;;;;5088170;28;20198;-80
2023/06/13 08:00:48;;;;;;;3.33;2.80;;;;;30.30;101380.00;;;;5087829;28;20204;-80
2023/06/13 08:03:15;;;;;;;3.72;3.15;;;;;30.40;101384.00;;;;5068463;28;20289;-81
2023/06/13 08:05:42;;;;;;;6.38;3.10;;;;;30.50;101380.00;;;;5068284;28;20198;-80
2023/06/13 08:08:10;;;;;;;4.65;2.90;;;;;30.60;101384.00;;;;5068418;28;20203;-80
2023/06/13 08:10:37;;;;;;;6.05;3.03;;;;;30.70;101374.00;;;;5067974;28;20199;-80
2023/06/13 08:13:04;;;;;;;5.32;2.78;;;;;30.90;101376.00;;;;5067858;28;20231;-80
2023/06/13 08:15:32;;;;;;;4.72;3.42;;;;;31.00;101375.00;;;;5068195;28;20563;-79
2023/06/13 08:18:00;;;;;;;4.03;3.20;;;;;31.00;101365.00;;;;5069260;28;20191;-80
2023/06/13 08:20:27;;;;;;;3.80;3.40;;;;;31.10;101374.00;;;;5067740;28;20203;-80
2023/06/13 08:22:56;;;;;;;5.07;3.35;;;;;31.20;101370.00;;;;5068095;28;20210;-80
2023/06/13 08:25:23;;;;;;;9.25;3.47;;;;;31.30;101382.00;;;;5067557;28;20731;-80
2023/06/13 08:27:52;;;;;;;4.03;3.22;;;;;31.40;101374.00;;;;5067029;28;20202;-80
2023/06/13 08:30:19;;;;;;;3.70;2.90;;;;;31.50;101377.00;;;;5073236;28;20204;-79
2023/06/13 08:32:47;;;;;;;3.50;2.72;;;;;31.50;101367.00;;;;5087732;28;20333;-80
2023/06/13 08:35:15;;;;;;;3.22;2.80;;;;;31.60;101375.00;;;;5087204;28;20206;-80
2023/06/13 08:37:43;;;;;;;3.55;3.10;;;;;31.70;101375.00;;;;5088398;28;20213;-81
2023/06/13 08:40:12;;;;;;;3.22;2.88;;;;;31.70;101375.00;;;;5087341;28;20232;-80
2023/06/13 08:42:39;;;;;;;5.13;2.97;;;;;31.80;101380.00;;;;5089117;28;20206;-80
2023/06/13 08:45:08;;;;;;;3.75;2.97;;;;;31.90;101377.00;;;;5091526;28;20672;-82
2023/06/13 08:47:36;;;;;;;3.38;2.75;;;;;32.00;101382.00;;;;5091338;28;20221;-81
2023/06/13 08:50:04;;;;;;;3.92;3.53;;;;;32.10;101372.00;;;;5092531;28;20196;-81
2023/06/13 08:52:39;;;;;;;9.05;3.28;;;;;32.10;101379.00;;;;5090312;28;20648;-80
2023/06/13 08:55:10;;;;;;;6.35;3.90;;;;;32.20;101377.00;;;;5091606;28;20189;-81
2023/06/13 08:57:39;;;;;;;3.33;2.95;;;;;32.30;101369.00;;;;5091415;28;20548;-80
2023/06/13 09:00:09;;;;;;;5.65;2.80;;;;;32.40;101372.00;;;;5091660;28;20270;-80
2023/06/13 09:02:37;;;;;;;5.15;2.65;;;;;32.50;101371.00;;;;5091352;28;20232;-80
2023/06/13 09:05:04;;;;;;;3.72;2.97;;;;;32.50;101367.00;;;;5091445;28;20274;-80
2023/06/13 09:07:34;;;;;;;3.30;3.00;;;;;32.60;101372.00;;;;5091988;28;20198;-79
2023/06/13 09:10:01;;;;;;;3.60;3.25;;;;;32.70;101360.00;;;;5081050;28;20202;-80
2023/06/13 09:12:29;;;;;;;3.40;3.10;;;;;32.80;101370.00;;;;5070842;28;20213;-80
2023/06/13 09:14:56;;;;;;;5.65;3.30;;;;;32.80;101363.00;;;;5070651;28;20211;-80
2023/06/13 09:17:24;;;;;;;5.90;3.53;;;;;32.90;101374.00;;;;5070477;28;20202;-81
2023/06/13 09:19:51;;;;;;;4.40;3.53;;;;;33.00;101369.00;;;;5071100;28;20607;-80
2023/06/13 09:22:19;;;;;;;4.22;3.53;;;;;33.00;101375.00;;;;5069715;28;20695;-81
2023/06/13 09:24:48;;;;;;;6.13;2.83;;;;;33.00;101355.00;;;;5070760;28;20234;-80
2023/06/13 09:27:15;;;;;;;6.25;3.40;;;;;33.10;101358.00;;;;5070401;28;20795;-80
2023/06/13 09:29:44;;;;;;;3.60;2.90;;;;;33.20;101340.00;;;;5071449;28;20202;-80
2023/06/13 09:32:13;;;;;;;3.17;2.80;;;;;33.30;101340.00;;;;5090108;28;20290;-81
2023/06/13 09:34:42;;;;;;;3.60;2.95;;;;;33.30;101340.00;;;;5089381;28;20225;-80
2023/06/13 09:37:10;;;;;;;4.57;3.15;;;;;33.40;101348.00;;;;5090075;28;20243;-79
2023/06/13 09:39:50;;;;;;;5.15;3.00;;;;;33.50;101357.00;;;;5090357;28;20209;-80
2023/06/13 09:42:21;;;;;;;3.85;3.20;;;;;33.60;101352.00;;;;5090204;28;20672;-80
2023/06/13 09:44:49;;;;;;;3.33;2.90;;;;;33.70;101356.00;;;;5073092;28;20215;-81
2023/06/13 09:47:22;;;;;;;3.60;3.30;;;;;33.80;101345.00;;;;5070161;28;20190;-80
2023/06/13 09:49:54;;;;;;;3.42;2.95;;;;;33.90;101356.00;;;;5070842;28;20197;-80
2023/06/13 09:52:25;;;;;;;4.50;3.50;;;;;34.00;101359.00;;;;5069583;28;20203;-81
2023/06/13 09:54:53;;;;;;;3.55;3.00;;;;;34.00;101361.00;;;;5070261;28;20230;-80
2023/06/13 09:57:21;;;;;;;3.10;2.85;;;;;34.10;101349.00;;;;5070078;28;20203;-80
2023/06/13 09:59:50;;;;;;;4.22;2.90;;;;;34.20;101357.00;;;;5080824;28;20204;-80
2023/06/13 10:02:19;;;;;;;9.10;3.40;;;;;34.20;101373.00;;;;5070327;28;20193;-80
2023/06/13 10:04:50;;;;;;;5.93;2.90;;;;;34.20;101351.00;;;;5071036;28;20226;-80
2023/06/13 10:07:18;;;;;;;3.30;2.75;;;;;34.30;101342.00;;;;5069282;28;20209;-79
2023/06/13 10:09:46;;;;;;;3.42;3.13;;;;;34.40;101364.00;;;;5069814;28;20668;-80
2023/06/13 10:12:21;;;;;;;3.55;2.90;;;;;34.30;101356.00;;;;5070176;28;20215;-80
2023/06/13 10:14:57;;;;;;;3.50;3.15;;;;;34.40;101342.00;;;;5069657;28;20218;-80
2023/06/13 10:17:28;;;;;;;3.47;3.17;;;;;34.50;101350.00;;;;5069618;28;20244;-79
2023/06/13 10:20:01;;;;;;;5.93;3.15;;;;;34.40;101364.00;;;;5069925;28;20199;-81
2023/06/13 10:22:28;;;;;;;3.65;3.30;;;;;34.50;101369.00;;;;5069583;28;20205;-80
2023/06/13 10:24:56;;;;;;;2.90;2.70;;;;;34.50;101349.00;;;;5069700;28;20205;-79
2023/06/13 10:27:26;;;;;;;4.13;3.10;;;;;34.50;101355.00;;;;5069049;28;20198;-80
2023/06/13 10:30:14;;;;;;;4.57;3.10;;;;;34.50;101367.00;;;;5072100;28;20214;-81
2023/06/13 10:33:18;;;;;;;4.05;3.28;;;;;34.40;101358.00;;;;5089389;28;20226;-81
2023/06/13 10:36:16;;;;;;;2.97;2.65;;;;;34.50;101352.00;;;;5076539;28;20323;-81
2023/06/13 10:39:31;;;;;;;4.78;2.75;;;;;34.50;101347.00;;;;5089294;28;20208;-80
2023/06/13 10:42:16;;;;;;;3.97;3.47;;;;;34.50;101346.00;;;;5089677;28;20559;-80
2023/06/13 10:44:51;;;;;;;4.50;2.95;;;;;34.60;101349.00;;;;5089622;28;20198;-80
2023/06/13 10:47:19;;;;;;;4.03;3.67;;;;;34.60;101357.00;;;;5089399;28;20201;-80
2023/06/13 10:49:49;;;;;;;5.03;2.97;;;;;34.60;101342.00;;;;5089130;28;20263;-81
2023/06/13 10:52:18;;;;;;;6.72;3.15;;;;;34.70;101345.00;;;;5088443;28;20205;-80
2023/06/13 10:54:53;;;;;;;3.40;3.10;;;;;34.70;101336.00;;;;5089649;28;20225;-80
2023/06/13 10:57:21;;;;;;;3.35;3.05;;;;;34.80;101335.00;;;;5089430;28;20201;-81
2023/06/13 10:59:50;;;;;;;4.45;3.00;;;;;34.70;101329.00;;;;5088792;28;20198;-81
2023/06/13 11:02:20;;;;;;;4.45;3.60;;;;;34.80;101327.00;;;;5088178;28;20209;-82
2023/06/13 11:04:51;;;;;;;4.80;3.47;;;;;34.80;101318.00;;;;5089502;28;20228;-80
2023/06/13 11:07:30;;;;;;;3.17;2.70;;;;;34.80;101325.00;;;;5088382;28;20266;-80
2023/06/13 11:10:13;;;;;;;3.72;2.72;;;;;34.80;101325.00;;;;5070299;28;20206;-80
2023/06/13 11:12:42;;;;;;;3.55;3.00;;;;;34.90;101318.00;;;;5067353;28;20665;-80
2023/06/13 11:15:22;;;;;;;9.40;3.28;;;;;34.80;101321.00;;;;5068516;28;20225;-80
2023/06/13 11:18:21;;;;;;;3.30;3.00;;;;;34.80;101322.00;;;;5068282;28;20190;-80
2023/06/13 11:20:50;;;;;;;3.97;3.30;;;;;35.00;101328.00;;;;5068544;28;20691;-80
2023/06/13 11:23:18;;;;;;;5.72;3.38;;;;;35.00;101329.00;;;;5067744;28;20202;-81
2023/06/13 11:25:46;;;;;;;5.25;3.55;;;;;35.00;101324.00;;;;5069166;28;20268;-80
2023/06/13 11:28:14;;;;;;;4.20;3.28;;;;;35.00;101319.00;;;;5067940;28;20206;-81
2023/06/13 11:30:44;;;;;;;4.22;3.35;;;;;34.90;101319.00;;;;5076397;28;20198;-81
2023/06/13 11:33:13;;;;;;;4.10;3.60;;;;;34.90;101314.00;;;;5087951;28;20259;-81
2023/06/13 11:35:49;;;;;;;6.53;3.53;;;;;34.90;101306.00;;;;5088276;28;20278;-82
2023/06/13 11:38:21;;;;;;;3.90;3.50;;;;;34.90;101315.00;;;;5088193;28;20193;-81
2023/06/13 11:40:56;;;;;;;4.28;2.95;;;;;34.90;101303.00;;;;5088443;28;20723;-81
2023/06/13 11:43:25;;;;;;;3.50;3.20;;;;;35.00;101303.00;;;;5086189;28;20228;-80
2023/06/13 11:46:00;;;;;;;2.85;2.63;;;;;35.00;101307.00;;;;5088205;28;20589;-82
2023/06/13 11:48:27;;;;;;;6.07;3.10;;;;;35.00;101297.00;;;;5088118;28;20204;-82
2023/06/13 11:51:07;;;;;;;4.28;3.35;;;;;35.00;101309.00;;;;5088417;28;20570;-81
2023/06/13 11:53:48;;;;;;;4.72;3.63;;;;;34.90;101306.00;;;;5087559;28;20586;-81
2023/06/13 11:56:15;;;;;;;4.13;3.15;;;;;35.10;101312.00;;;;5088792;28;20201;-81
2023/06/13 11:58:42;;;;;;;7.22;4.63;;;;;35.10;101305.00;;;;5087844;28;20201;-81
2023/06/13 12:01:15;;;;;;;3.25;2.95;;;;;35.10;101303.00;;;;5069083;28;20205;-81
2023/06/13 12:03:44;;;;;;;3.80;3.40;;;;;35.10;101297.00;;;;5067672;28;20214;-81
2023/06/13 12:06:11;;;;;;;3.65;3.35;;;;;35.20;101298.00;;;;5068104;28;20191;-82
2023/06/13 12:08:42;;;;;;;3.38;3.08;;;;;35.20;101297.00;;;;5068254;28;20190;-81
2023/06/13 12:11:11;;;;;;;3.60;3.30;;;;;35.20;101299.00;;;;5067827;28;20207;-81
2023/06/13 12:13:38;;;;;;;7.45;3.60;;;;;35.20;101296.00;;;;5068094;28;20275;-82
2023/06/13 12:16:06;;;;;;;4.85;3.50;;;;;35.10;101292.00;;;;5068760;28;20210;-81
2023/06/13 12:18:35;;;;;;;3.50;3.08;;;;;35.10;101294.00;;;;5070195;28;20297;-81